Time;durP1;ratioP1;P1;durP2;ratioP2;P2;SDS_P1;SDS_P2;PMS_P1;PMS_P2;Temp;Humidity;BMP_temperature;BMP_pressure;BME280_temperature;BME280_humidity;BME280_pressure;Samples;Min_cycle;Max_cycle;Signal;HPM_P1;HPM_P2
2022/01/24 00:01:34;;;;;;;4.40;3.45;;;21.90;35.40;;;;;;5051286;28;20116;-48
2022/01/24 00:04:02;;;;;;;4.35;3.25;;;21.90;35.40;;;;;;5053905;28;20036;-49
2022/01/24 00:06:30;;;;;;;4.85;3.17;;;21.90;35.30;;;;;;5033232;28;20037;-53
2022/01/24 00:08:55;;;;;;;4.78;3.42;;;21.90;35.30;;;;;;5050421;28;20100;-49
2022/01/24 00:11:26;;;;;;;4.28;3.42;;;21.90;35.90;;;;;;5052801;28;20116;-55
2022/01/24 00:27:17;;;;;;;5.35;3.40;;;21.80;35.00;;;;;;5053009;28;20104;-48
2022/01/24 00:29:42;;;;;;;3.90;3.30;;;21.80;35.00;;;;;;5035670;28;20037;-48
2022/01/24 00:32:08;;;;;;;4.00;3.13;;;21.80;35.00;;;;;;5052378;28;20017;-47
2022/01/24 00:34:34;;;;;;;4.35;3.17;;;21.80;34.90;;;;;;5053328;28;20025;-46
2022/01/24 00:37:00;;;;;;;4.78;3.70;;;21.80;34.90;;;;;;5034539;28;20032;-48
2022/01/24 00:39:26;;;;;;;4.10;3.58;;;21.80;34.80;;;;;;5052936;28;20094;-47
2022/01/24 00:45:51;;;;;;;;;;;21.80;34.70;;;;;;5051992;28;20059;-45
2022/01/24 00:48:02;;;;;;;3.72;3.20;;;21.70;34.70;;;;;;5038955;28;19905;-48
2022/01/24 00:53:29;;;;;;;4.18;3.28;;;21.70;34.60;;;;;;5052486;28;20363;-50
2022/01/24 00:55:54;;;;;;;3.60;3.25;;;21.70;34.60;;;;;;5052022;28;20036;-51
2022/01/24 00:58:20;;;;;;;3.72;2.95;;;21.70;34.50;;;;;;5052510;28;20360;-51
2022/01/24 01:00:46;;;;;;;3.60;3.10;;;21.70;34.50;;;;;;5052387;28;20040;-51
2022/01/24 01:03:12;;;;;;;3.78;3.08;;;21.70;34.50;;;;;;5050549;28;20029;-51
2022/01/24 01:06:00;;;;;;;4.30;3.10;;;21.80;34.40;;;;;;5053098;28;20040;-51
2022/01/24 01:19:24;;;;;;;3.65;2.88;;;21.70;34.30;;;;;;5055928;28;20031;-50
2022/01/24 01:21:50;;;;;;;3.90;2.78;;;21.70;34.30;;;;;;5055804;28;20024;-49
2022/01/24 01:24:17;;;;;;;3.00;2.50;;;21.70;34.20;;;;;;5056332;28;20025;-48
2022/01/24 01:26:49;;;;;;;3.13;2.75;;;21.70;34.20;;;;;;5054637;28;20047;-50
2022/01/24 01:29:30;;;;;;;2.70;2.47;;;21.70;34.20;;;;;;5056467;28;20115;-45
2022/01/24 01:55:49;;;;;;;2.90;2.45;;;21.60;34.00;;;;;;5054764;28;20024;-47
2022/01/24 01:58:17;;;;;;;3.65;2.65;;;21.60;34.10;;;;;;5055670;28;20075;-48
2022/01/24 02:00:50;;;;;;;2.92;2.58;;;21.60;34.10;;;;;;5055151;28;20029;-50
2022/01/24 02:03:17;;;;;;;5.30;2.40;;;21.70;34.20;;;;;;5055176;28;20067;-49
2022/01/24 02:05:43;;;;;;;3.05;2.45;;;21.70;34.10;;;;;;5051944;28;20364;-51
2022/01/24 02:08:09;;;;;;;3.40;2.55;;;21.60;34.10;;;;;;5055846;28;20025;-47
2022/01/24 02:10:38;;;;;;;2.97;2.38;;;21.60;34.00;;;;;;5053404;28;20032;-52
2022/01/24 02:13:04;;;;;;;4.25;1.85;;;21.60;34.00;;;;;;5055161;28;20029;-48
2022/01/24 02:25:57;;;;;;;2.50;2.22;;;21.60;33.90;;;;;;5053007;28;20039;-48
2022/01/24 02:28:25;;;;;;;2.50;2.13;;;21.60;33.90;;;;;;5054270;28;20390;-51
2022/01/24 02:33:38;;;;;;;2.60;2.17;;;21.60;33.80;;;;;;5054003;28;20017;-46
2022/01/24 02:36:04;;;;;;;2.38;2.08;;;21.60;33.80;;;;;;5053472;28;20017;-48
2022/01/24 02:49:16;;;;;;;3.03;2.40;;;21.50;33.80;;;;;;5055475;28;20044;-45
2022/01/24 02:51:47;;;;;;;2.33;2.13;;;21.50;33.80;;;;;;5053349;28;20020;-45
2022/01/24 02:54:32;;;;;;;2.38;1.83;;;21.50;33.80;;;;;;5055368;28;20021;-52
2022/01/24 02:56:59;;;;;;;3.13;2.40;;;21.50;33.70;;;;;;5055088;28;20053;-52
2022/01/24 02:59:25;;;;;;;2.45;1.88;;;21.50;33.70;;;;;;5055133;28;20448;-47
2022/01/24 03:01:53;;;;;;;2.72;2.17;;;21.50;33.70;;;;;;5052278;28;20068;-48
2022/01/24 03:04:19;;;;;;;2.90;2.20;;;21.50;33.70;;;;;;5054995;28;20425;-51
2022/01/24 03:06:45;;;;;;;2.85;2.30;;;21.50;33.70;;;;;;5053965;28;20332;-48
2022/01/24 03:09:12;;;;;;;2.70;2.20;;;21.50;33.70;;;;;;5051903;28;20028;-50
2022/01/24 03:14:18;;;;;;;3.47;1.92;;;21.50;33.60;;;;;;5054687;28;20048;-52
2022/01/24 03:16:44;;;;;;;2.90;2.08;;;21.50;33.60;;;;;;5054057;28;20138;-46
2022/01/24 03:19:10;;;;;;;2.72;2.13;;;21.50;33.60;;;;;;5054951;28;20200;-45
2022/01/24 03:21:36;;;;;;;2.83;2.25;;;21.50;33.60;;;;;;5054120;28;20052;-46
2022/01/24 03:24:02;;;;;;;2.65;2.17;;;21.50;33.60;;;;;;5055042;28;20029;-49
2022/01/24 03:26:27;;;;;;;2.38;2.13;;;21.50;33.60;;;;;;5052268;28;20523;-47
2022/01/24 03:28:53;;;;;;;2.30;2.10;;;21.50;33.60;;;;;;5054347;28;20108;-48
2022/01/24 03:31:19;;;;;;;2.90;2.42;;;21.40;33.50;;;;;;5054124;28;20060;-48
2022/01/24 03:33:45;;;;;;;3.00;2.28;;;21.50;33.60;;;;;;5054432;28;20113;-50
2022/01/24 03:36:11;;;;;;;3.13;2.20;;;21.50;33.60;;;;;;5051402;28;20045;-49
2022/01/24 03:38:37;;;;;;;2.20;2.00;;;21.50;33.60;;;;;;5054344;28;20021;-50
2022/01/24 03:41:03;;;;;;;2.47;2.10;;;21.40;33.50;;;;;;5052836;28;20344;-51
2022/01/24 03:43:29;;;;;;;2.50;2.20;;;21.50;33.50;;;;;;5052974;28;20025;-48
2022/01/24 03:48:44;;;;;;;2.55;2.22;;;21.40;33.50;;;;;;5054292;28;20100;-49
2022/01/24 03:51:11;;;;;;;2.33;1.98;;;21.40;33.50;;;;;;5054383;28;20447;-50
2022/01/24 03:53:38;;;;;;;2.33;2.13;;;21.40;33.50;;;;;;5054038;28;20048;-45
2022/01/24 03:56:04;;;;;;;2.78;2.17;;;21.40;33.50;;;;;;5050492;28;20403;-50
2022/01/24 03:58:30;;;;;;;2.55;2.13;;;21.40;33.50;;;;;;5053904;28;20120;-50
2022/01/24 04:00:56;;;;;;;2.60;2.30;;;21.40;33.50;;;;;;5050465;28;20021;-51
2022/01/24 04:03:22;;;;;;;2.53;2.10;;;21.40;33.50;;;;;;5052432;28;20032;-45
2022/01/24 04:05:48;;;;;;;2.45;2.25;;;21.40;33.50;;;;;;5052991;28;20040;-47
2022/01/24 04:08:14;;;;;;;2.92;2.30;;;21.40;33.50;;;;;;5053354;28;20070;-48
2022/01/24 04:10:42;;;;;;;2.53;2.08;;;21.40;33.50;;;;;;5052949;28;20151;-49
2022/01/24 04:13:24;;;;;;;3.08;2.50;;;21.40;33.60;;;;;;5053603;28;20060;-50
2022/01/24 04:16:11;;;;;;;2.40;2.08;;;21.40;33.60;;;;;;5051758;28;20035;-49
2022/01/24 04:18:53;;;;;;;2.30;2.10;;;21.40;33.60;;;;;;5050203;28;20036;-49
2022/01/24 04:21:35;;;;;;;2.63;2.20;;;21.40;33.60;;;;;;5049677;28;20020;-47
2022/01/24 04:26:29;;;;;;;2.55;2.35;;;21.40;33.60;;;;;;5051777;28;20024;-49
2022/01/24 04:28:55;;;;;;;2.38;2.13;;;21.40;33.60;;;;;;5053639;28;20017;-49
2022/01/24 04:31:22;;;;;;;2.53;2.13;;;21.40;33.70;;;;;;5052433;28;20455;-47
2022/01/24 04:33:49;;;;;;;2.45;2.05;;;21.40;33.70;;;;;;5051746;28;20477;-46
2022/01/24 04:36:16;;;;;;;2.60;1.92;;;21.40;33.70;;;;;;5052569;28;20060;-51
2022/01/24 04:38:42;;;;;;;2.20;1.90;;;21.40;33.60;;;;;;5053077;28;20039;-48
2022/01/24 04:41:17;;;;;;;2.50;2.08;;;21.40;33.70;;;;;;5052771;28;20104;-47
2022/01/24 04:43:53;;;;;;;;;;;21.40;33.70;;;;;;5051237;28;20059;-45
2022/01/24 04:56:57;;;;;;;2.95;2.42;;;21.30;33.60;;;;;;5051367;28;20075;-50
2022/01/24 04:59:22;;;;;;;2.20;1.70;;;21.30;33.60;;;;;;5051893;28;20355;-46
2022/01/24 05:01:48;;;;;;;2.70;2.05;;;21.30;33.60;;;;;;5052717;28;20047;-45
2022/01/24 05:04:14;;;;;;;3.38;1.92;;;21.30;33.60;;;;;;5053109;28;20021;-48
2022/01/24 05:06:40;;;;;;;2.20;1.90;;;21.40;33.60;;;;;;5051584;28;20025;-55
2022/01/24 05:09:06;;;;;;;3.05;2.00;;;21.30;33.50;;;;;;5052796;28;20499;-49
2022/01/24 05:11:49;;;;;;;2.55;2.22;;;21.40;33.60;;;;;;5050282;28;20024;-48
2022/01/24 05:25:13;;;;;;;2.20;2.00;;;21.30;33.50;;;;;;5047799;28;20518;-52
2022/01/24 05:27:39;;;;;;;2.45;1.98;;;21.30;33.60;;;;;;5051615;28;20021;-49
2022/01/24 05:30:06;;;;;;;2.45;2.00;;;21.30;33.50;;;;;;5049451;28;20348;-52
2022/01/24 05:32:32;;;;;;;2.17;1.88;;;21.30;33.50;;;;;;5049280;28;20029;-52
2022/01/24 05:34:57;;;;;;;2.40;1.90;;;21.30;33.50;;;;;;5051798;28;20451;-51
2022/01/24 05:37:23;;;;;;;2.05;1.67;;;21.30;33.50;;;;;;5051272;28;20074;-50
2022/01/24 05:39:49;;;;;;;2.22;2.03;;;21.30;33.50;;;;;;5051029;28;20110;-51
2022/01/24 05:42:18;;;;;;;2.47;1.90;;;21.20;33.50;;;;;;5052164;28;20049;-47
2022/01/24 05:44:44;;;;;;;2.05;1.85;;;21.30;33.50;;;;;;5048568;28;20356;-52
2022/01/24 05:47:10;;;;;;;2.47;1.60;;;21.30;33.50;;;;;;5034622;28;20020;-47
2022/01/24 05:49:36;;;;;;;2.03;1.80;;;21.30;33.50;;;;;;5050615;28;20116;-49
2022/01/24 05:52:08;;;;;;;2.22;1.85;;;21.30;33.50;;;;;;5051734;28;20029;-49
2022/01/24 05:54:36;;;;;;;2.03;1.83;;;21.30;33.50;;;;;;5051835;28;20507;-50
2022/01/24 05:57:02;;;;;;;1.48;1.38;;;21.30;33.50;;;;;;5051926;28;20064;-51
2022/01/24 05:59:28;;;;;;;1.70;1.50;;;21.30;33.50;;;;;;5053412;28;20490;-49
2022/01/24 06:01:53;;;;;;;1.73;1.52;;;21.30;33.50;;;;;;5054433;28;20045;-51
2022/01/24 06:04:19;;;;;;;2.13;1.77;;;21.20;33.50;;;;;;5054709;28;20020;-53
2022/01/24 06:06:45;;;;;;;2.30;1.48;;;21.30;33.50;;;;;;5052694;28;20029;-49
2022/01/24 06:09:11;;;;;;;1.60;1.50;;;21.30;33.50;;;;;;5038358;28;20032;-47
2022/01/24 06:11:36;;;;;;;2.67;1.50;;;21.30;33.50;;;;;;5054742;28;20029;-46
2022/01/24 06:14:03;;;;;;;1.65;1.50;;;21.20;33.50;;;;;;5055282;28;20388;-47
2022/01/24 06:16:29;;;;;;;1.90;1.50;;;21.20;33.50;;;;;;5050929;28;20358;-45
2022/01/24 06:18:55;;;;;;;1.92;1.70;;;21.20;33.50;;;;;;5036742;28;20052;-49
2022/01/24 06:21:21;;;;;;;1.63;1.40;;;21.20;33.50;;;;;;5054215;28;20057;-45
2022/01/24 06:23:47;;;;;;;1.95;1.65;;;21.20;33.50;;;;;;5055298;28;20051;-49
2022/01/24 06:26:13;;;;;;;1.30;1.20;;;21.20;33.50;;;;;;5053678;28;20442;-48
2022/01/24 06:28:40;;;;;;;1.70;1.27;;;21.20;33.50;;;;;;5054481;28;20065;-48
2022/01/24 06:31:06;;;;;;;2.40;1.50;;;21.20;33.40;;;;;;5055423;28;20379;-46
2022/01/24 06:33:32;;;;;;;1.75;1.38;;;21.20;33.40;;;;;;5055011;28;20020;-51
2022/01/24 06:35:57;;;;;;;1.48;1.33;;;21.20;33.40;;;;;;5054767;28;20021;-48
2022/01/24 06:38:23;;;;;;;1.63;1.40;;;21.20;33.40;;;;;;5055187;28;20348;-51
2022/01/24 06:40:49;;;;;;;2.42;1.40;;;21.20;33.40;;;;;;5053506;28;20036;-49
2022/01/24 06:43:15;;;;;;;2.05;1.70;;;21.20;33.40;;;;;;5054881;28;20013;-46
2022/01/24 06:45:41;;;;;;;1.38;1.25;;;21.20;33.40;;;;;;5054410;28;20340;-48
2022/01/24 06:48:07;;;;;;;1.45;1.30;;;21.20;33.40;;;;;;5055325;28;20051;-45
2022/01/24 06:50:32;;;;;;;2.05;1.50;;;21.20;33.40;;;;;;5052562;28;20024;-45
2022/01/24 06:52:58;;;;;;;1.40;1.30;;;21.20;33.40;;;;;;5053850;28;20035;-49
2022/01/24 06:55:24;;;;;;;1.50;1.40;;;21.20;33.40;;;;;;5055123;28;20035;-46
2022/01/24 06:57:51;;;;;;;1.67;1.40;;;21.20;33.40;;;;;;5049021;28;20084;-49
2022/01/24 07:00:17;;;;;;;3.20;1.48;;;21.20;33.40;;;;;;5055159;28;20037;-46
2022/01/24 07:02:42;;;;;;;1.27;1.13;;;21.20;33.50;;;;;;5054143;28;20021;-46
2022/01/24 07:05:09;;;;;;;1.40;1.30;;;21.20;33.50;;;;;;5054426;28;20024;-53
2022/01/24 07:07:34;;;;;;;1.60;1.15;;;21.20;33.50;;;;;;5053084;28;20053;-48
2022/01/24 07:10:01;;;;;;;1.40;1.30;;;21.10;33.40;;;;;;5053342;28;20438;-46
2022/01/24 07:12:27;;;;;;;1.67;1.40;;;21.20;33.50;;;;;;5053969;28;20017;-49
2022/01/24 07:14:54;;;;;;;2.13;1.50;;;21.20;33.50;;;;;;5054726;28;20063;-45
2022/01/24 07:19:51;;;;;;;1.25;1.13;;;21.20;33.50;;;;;;5054369;28;20106;-47
2022/01/24 07:22:24;;;;;;;1.48;1.38;;;21.20;33.50;;;;;;5054293;28;20021;-51
2022/01/24 07:24:50;;;;;;;1.63;1.33;;;21.20;33.50;;;;;;5052919;28;20044;-56
2022/01/24 07:27:15;;;;;;;3.03;1.40;;;21.20;33.50;;;;;;5053854;28;20029;-53
2022/01/24 07:29:41;;;;;;;2.03;1.40;;;21.10;33.40;;;;;;5052520;28;20082;-51
2022/01/24 07:32:07;;;;;;;1.67;1.48;;;21.20;33.40;;;;;;5053797;28;20036;-52
2022/01/24 07:34:34;;;;;;;1.70;1.38;;;21.20;33.40;;;;;;5051087;28;20025;-51
2022/01/24 07:37:00;;;;;;;1.80;1.70;;;21.10;33.30;;;;;;5053597;28;20112;-52
2022/01/24 07:39:25;;;;;;;2.67;1.75;;;21.20;33.40;;;;;;5053218;28;20120;-54
2022/01/24 07:41:52;;;;;;;2.67;1.67;;;21.10;33.40;;;;;;5054085;28;20017;-45
2022/01/24 07:44:20;;;;;;;1.90;1.48;;;21.10;33.40;;;;;;5047444;28;20033;-49
2022/01/24 07:46:47;;;;;;;2.00;1.30;;;21.10;33.50;;;;;;5052723;28;20039;-54
2022/01/24 07:49:13;;;;;;;1.90;1.35;;;21.20;33.70;;;;;;5034095;28;20310;-50
2022/01/24 07:51:39;;;;;;;1.42;1.10;;;21.20;33.80;;;;;;5052118;28;20165;-51
2022/01/24 07:54:06;;;;;;;2.67;1.30;;;21.30;34.00;;;;;;5050749;28;20073;-48
2022/01/24 07:56:32;;;;;;;2.00;1.25;;;21.40;34.00;;;;;;5053519;28;20035;-57
2022/01/24 07:58:58;;;;;;;2.35;1.13;;;21.50;34.10;;;;;;5053971;28;20040;-48
2022/01/24 08:01:24;;;;;;;1.77;1.23;;;21.60;34.00;;;;;;5052267;28;20360;-52
2022/01/24 08:03:51;;;;;;;2.22;1.50;;;21.70;34.60;;;;;;5053099;28;20067;-51
2022/01/24 08:06:18;;;;;;;1.52;1.13;;;21.70;33.80;;;;;;5052149;28;20024;-48
2022/01/24 08:08:44;;;;;;;4.03;1.33;;;21.90;33.70;;;;;;5053251;28;20017;-49
2022/01/24 08:11:11;;;;;;;2.65;1.25;;;22.00;33.60;;;;;;5051833;28;20120;-49
2022/01/24 08:13:37;;;;;;;2.60;1.50;;;22.10;33.40;;;;;;5047629;28;20087;-50
2022/01/24 08:16:03;;;;;;;1.25;1.05;;;22.10;33.30;;;;;;5047197;28;20017;-48
2022/01/24 08:18:29;;;;;;;1.55;1.20;;;22.20;33.10;;;;;;5038235;28;20038;-51
2022/01/24 08:20:55;;;;;;;1.52;1.20;;;22.30;33.00;;;;;;5047426;28;20383;-52
2022/01/24 08:23:21;;;;;;;1.92;1.38;;;22.40;33.10;;;;;;5045046;28;20047;-49
2022/01/24 08:25:46;;;;;;;3.03;2.00;;;22.50;33.10;;;;;;5042098;28;20044;-50
2022/01/24 08:28:12;;;;;;;1.98;1.17;;;22.60;33.10;;;;;;5047143;28;20029;-52
2022/01/24 08:30:38;;;;;;;1.48;1.17;;;22.60;33.00;;;;;;5051755;28;20037;-48
2022/01/24 08:33:05;;;;;;;2.65;1.50;;;22.70;33.00;;;;;;5052120;28;20020;-53
2022/01/24 08:35:32;;;;;;;1.58;1.05;;;22.80;32.90;;;;;;5053401;28;20021;-46
2022/01/24 08:37:57;;;;;;;2.42;1.30;;;22.90;32.90;;;;;;5051943;28;20064;-45
2022/01/24 08:40:26;;;;;;;2.28;1.60;;;22.90;32.70;;;;;;5047925;28;20443;-49
2022/01/24 08:43:03;;;;;;;1.83;1.30;;;23.00;32.60;;;;;;5041366;28;20029;-45
2022/01/24 08:45:45;;;;;;;2.22;1.20;;;23.10;32.50;;;;;;5039276;28;20021;-48
2022/01/24 08:48:15;;;;;;;1.65;1.27;;;23.10;32.40;;;;;;5044284;28;20122;-48
2022/01/24 08:50:41;;;;;;;2.90;1.52;;;23.10;32.30;;;;;;5035754;28;20052;-50
2022/01/24 08:53:08;;;;;;;2.35;1.20;;;23.20;32.20;;;;;;5020395;28;20344;-49
2022/01/24 08:55:36;;;;;;;3.80;1.60;;;23.20;32.20;;;;;;5042867;28;20037;-48
2022/01/24 08:58:03;;;;;;;2.17;1.30;;;23.30;32.10;;;;;;5037705;28;20040;-49
2022/01/24 09:00:30;;;;;;;2.58;1.30;;;23.30;31.90;;;;;;5038045;28;20502;-50
2022/01/24 09:02:55;;;;;;;2.13;1.10;;;23.30;31.90;;;;;;5047557;28;20040;-52
2022/01/24 09:05:23;;;;;;;2.45;1.50;;;23.40;31.80;;;;;;5036033;28;20017;-50
2022/01/24 09:07:49;;;;;;;2.30;1.05;;;23.40;31.70;;;;;;5036822;28;20036;-47
2022/01/24 09:10:16;;;;;;;2.10;1.10;;;23.50;31.70;;;;;;5042154;28;20025;-53
2022/01/24 09:12:42;;;;;;;1.33;1.08;;;23.50;31.60;;;;;;5049766;28;20025;-52
2022/01/24 09:15:08;;;;;;;3.00;1.50;;;23.50;31.50;;;;;;5050787;28;20032;-47
2022/01/24 09:17:34;;;;;;;2.67;1.30;;;23.60;31.50;;;;;;5050439;28;20040;-52
2022/01/24 09:20:00;;;;;;;2.25;1.35;;;23.60;31.40;;;;;;5046046;28;20035;-47
2022/01/24 09:22:26;;;;;;;1.50;1.10;;;23.60;31.40;;;;;;5051206;28;20401;-48
2022/01/24 09:24:53;;;;;;;1.33;1.00;;;23.70;31.40;;;;;;5043944;28;20078;-49
2022/01/24 09:27:19;;;;;;;1.60;0.98;;;23.70;31.30;;;;;;5042176;28;20021;-49
2022/01/24 09:29:45;;;;;;;1.85;1.10;;;23.70;31.30;;;;;;5048134;28;20025;-45
2022/01/24 09:32:11;;;;;;;1.92;1.00;;;23.80;31.30;;;;;;5053759;28;20029;-48
2022/01/24 09:34:37;;;;;;;1.40;1.10;;;23.80;31.20;;;;;;5056258;28;20025;-52
2022/01/24 09:37:03;;;;;;;2.50;1.17;;;23.80;31.20;;;;;;5057839;28;20044;-52
2022/01/24 09:39:29;;;;;;;0.90;0.80;;;23.80;31.10;;;;;;5057710;28;20116;-48
2022/01/24 09:41:55;;;;;;;1.60;0.90;;;23.80;31.10;;;;;;5057863;28;20131;-51
2022/01/24 09:44:21;;;;;;;1.35;0.90;;;23.80;31.10;;;;;;5057360;28;20031;-50
2022/01/24 09:46:47;;;;;;;1.63;0.85;;;23.80;31.10;;;;;;5048881;28;20032;-54
2022/01/24 09:49:14;;;;;;;1.58;0.90;;;23.80;31.10;;;;;;5060943;28;20443;-55
2022/01/24 09:51:43;;;;;;;1.33;1.02;;;23.80;31.00;;;;;;5057662;28;20052;-56
2022/01/24 09:54:12;;;;;;;1.48;0.90;;;23.80;31.00;;;;;;5039332;28;20099;-48
2022/01/24 09:56:39;;;;;;;0.95;0.75;;;23.80;31.00;;;;;;5054205;28;20033;-51
2022/01/24 09:59:05;;;;;;;0.90;0.75;;;23.80;30.90;;;;;;5056624;28;20044;-49
2022/01/24 10:01:33;;;;;;;1.00;0.90;;;23.70;30.90;;;;;;5056585;28;20027;-47
2022/01/24 10:04:20;;;;;;;1.40;0.98;;;23.70;30.90;;;;;;5057504;28;20025;-49
2022/01/24 10:07:15;;;;;;;1.83;1.00;;;23.70;30.80;;;;;;5056949;28;20329;-45
2022/01/24 10:09:49;;;;;;;1.23;0.85;;;23.70;30.90;;;;;;5057685;28;20029;-51
2022/01/24 10:12:32;;;;;;;1.20;0.82;;;23.60;30.90;;;;;;5057736;28;20482;-48
2022/01/24 10:17:49;;;;;;;1.98;1.05;;;23.50;31.00;;;;;;5057578;28;20083;-48
2022/01/24 10:20:32;;;;;;;0.93;0.73;;;23.50;31.00;;;;;;5057192;28;20416;-48
2022/01/24 10:23:21;;;;;;;1.63;0.80;;;23.50;31.00;;;;;;5057554;28;20032;-49
2022/01/24 10:25:46;;;;;;;1.27;0.85;;;23.40;30.90;;;;;;5057697;28;20082;-48
2022/01/24 10:28:22;;;;;;;0.93;0.80;;;23.40;30.90;;;;;;5057554;28;20029;-46
2022/01/24 10:31:01;;;;;;;0.90;0.70;;;23.40;30.90;;;;;;5057152;28;20027;-48
2022/01/24 10:33:26;;;;;;;1.55;0.80;;;23.40;30.90;;;;;;5057364;28;20443;-49
2022/01/24 10:35:52;;;;;;;1.08;0.93;;;23.40;30.90;;;;;;5056982;28;20107;-46
2022/01/24 10:41:11;;;;;;;1.65;0.60;;;23.40;30.90;;;;;;5056486;28;20047;-45
2022/01/24 10:43:40;;;;;;;0.80;0.75;;;23.40;30.90;;;;;;5057034;28;20115;-46
2022/01/24 10:46:07;;;;;;;2.85;0.60;;;23.40;30.80;;;;;;5055888;28;20025;-46
2022/01/24 10:48:41;;;;;;;0.57;0.47;;;23.40;30.80;;;;;;5056764;28;20021;-49
2022/01/24 10:51:06;;;;;;;0.93;0.75;;;23.40;30.80;;;;;;5056592;28;20029;-47
2022/01/24 10:53:40;;;;;;;0.88;0.60;;;23.40;30.80;;;;;;5057024;28;20029;-47
2022/01/24 10:56:26;;;;;;;2.23;0.83;;;23.40;30.80;;;;;;5056804;28;20025;-49
2022/01/24 10:58:53;;;;;;;1.05;0.75;;;23.40;30.70;;;;;;5056041;28;20044;-47
2022/01/24 11:01:25;;;;;;;0.63;0.63;;;23.40;30.70;;;;;;5056482;28;20343;-45
2022/01/24 11:04:08;;;;;;;0.80;0.60;;;23.40;30.60;;;;;;5056051;28;20017;-47
2022/01/24 11:06:42;;;;;;;0.85;0.68;;;23.40;30.60;;;;;;5037246;28;20113;-47
2022/01/24 11:09:14;;;;;;;0.90;0.60;;;23.40;30.70;;;;;;5040658;28;20112;-47
2022/01/24 11:11:41;;;;;;;1.00;0.63;;;23.40;30.60;;;;;;5056445;28;20428;-44
2022/01/24 11:14:09;;;;;;;0.70;0.50;;;23.40;30.60;;;;;;5056342;28;20028;-45
2022/01/24 11:16:37;;;;;;;0.98;0.70;;;23.40;30.60;;;;;;5056637;28;20106;-46
2022/01/24 11:19:10;;;;;;;1.10;0.77;;;23.40;30.50;;;;;;5055776;28;20037;-48
2022/01/24 11:21:37;;;;;;;1.10;0.73;;;23.40;30.50;;;;;;5054176;28;20056;-46
2022/01/24 11:24:06;;;;;;;1.50;0.70;;;23.40;30.50;;;;;;5043101;28;20067;-52
2022/01/24 11:26:33;;;;;;;1.40;0.68;;;23.40;30.60;;;;;;5053447;28;20029;-47
2022/01/24 11:28:59;;;;;;;1.67;0.70;;;23.40;30.50;;;;;;5052233;28;20063;-47
2022/01/24 11:31:30;;;;;;;0.77;0.60;;;23.40;30.50;;;;;;5048235;28;20032;-51
2022/01/24 11:34:04;;;;;;;1.00;0.85;;;23.40;30.50;;;;;;5054801;28;20024;-52
2022/01/24 11:36:41;;;;;;;1.00;0.52;;;23.40;30.50;;;;;;5051934;28;20115;-48
2022/01/24 11:39:08;;;;;;;0.77;0.60;;;23.40;30.50;;;;;;5051620;28;20036;-45
2022/01/24 11:41:37;;;;;;;1.00;0.60;;;23.40;30.60;;;;;;5050417;28;20035;-53
2022/01/24 11:44:12;;;;;;;0.98;0.50;;;23.40;30.50;;;;;;5054274;28;20408;-50
2022/01/24 11:46:47;;;;;;;;;;;23.50;30.60;;;;;;5048090;28;20037;-48
2022/01/24 11:49:28;;;;;;;1.10;0.60;;;23.40;30.50;;;;;;5051138;28;20011;-50
2022/01/24 11:52:07;;;;;;;0.60;0.60;;;23.40;30.70;;;;;;5050199;28;20053;-49
2022/01/24 11:55:12;;;;;;;1.45;0.93;;;23.40;30.80;;;;;;5055339;28;20104;-45
2022/01/24 11:57:38;;;;;;;;;;;23.40;30.80;;;;;;5036562;28;20033;-47
2022/01/24 12:00:04;;;;;;;1.10;0.60;;;23.40;30.80;;;;;;5054816;28;19939;-51
2022/01/24 12:02:39;;;;;;;0.50;0.45;;;23.40;30.90;;;;;;5054189;28;20395;-45
2022/01/24 12:05:12;;;;;;;;;;;23.40;30.90;;;;;;5055622;28;20517;-47
2022/01/24 12:07:50;;;;;;;0.55;0.55;;;23.40;30.90;;;;;;5054601;28;19944;-48
2022/01/24 12:13:01;;;;;;;1.35;0.60;;;23.40;31.00;;;;;;5035990;28;20041;-51
2022/01/24 12:15:42;;;;;;;1.40;0.70;;;23.40;31.10;;;;;;5035524;28;20032;-50
2022/01/24 12:18:09;;;;;;;1.60;0.70;;;23.40;31.10;;;;;;5054335;28;20120;-49
2022/01/24 12:20:34;;;;;;;0.50;0.50;;;23.40;31.10;;;;;;5053868;28;20033;-46
2022/01/24 12:23:25;;;;;;;0.90;0.60;;;23.40;31.10;;;;;;5034871;28;20095;-46
2022/01/24 12:25:57;;;;;;;1.23;0.50;;;23.40;31.10;;;;;;5028800;28;20071;-52
2022/01/24 12:28:33;;;;;;;0.88;0.60;;;23.40;31.20;;;;;;5035025;28;20110;-49
2022/01/24 12:31:02;;;;;;;1.02;0.70;;;23.40;31.20;;;;;;5042405;28;20024;-44
2022/01/24 12:33:41;;;;;;;0.75;0.60;;;23.40;31.20;;;;;;5054330;28;20029;-50
2022/01/24 12:36:14;;;;;;;1.70;0.77;;;23.40;31.20;;;;;;5054614;28;20459;-47
2022/01/24 12:38:49;;;;;;;0.93;0.60;;;23.30;31.20;;;;;;5054800;28;20029;-47
2022/01/24 12:41:37;;;;;;;1.02;0.80;;;23.30;31.10;;;;;;5054333;28;20049;-49
2022/01/24 12:46:32;;;;;;;0.57;0.45;;;23.30;31.10;;;;;;5054848;28;20096;-51
2022/01/24 12:49:00;;;;;;;3.70;0.60;;;23.20;31.00;;;;;;5054687;28;20025;-49
2022/01/24 12:51:31;;;;;;;1.98;0.60;;;23.20;30.90;;;;;;5054676;28;20332;-48
2022/01/24 12:53:57;;;;;;;0.80;0.50;;;23.20;30.90;;;;;;5054641;28;20029;-53
2022/01/24 12:56:25;;;;;;;0.80;0.40;;;23.20;30.90;;;;;;5054367;28;20398;-54
2022/01/24 12:58:52;;;;;;;0.77;0.65;;;23.20;30.90;;;;;;5054677;28;20124;-50
2022/01/24 13:01:32;;;;;;;1.35;0.60;;;23.30;30.90;;;;;;5054730;28;20029;-52
2022/01/24 13:04:04;;;;;;;0.95;0.68;;;23.30;30.70;;;;;;5054808;28;20032;-49
2022/01/24 13:06:32;;;;;;;0.50;0.50;;;23.30;30.70;;;;;;5054113;28;20417;-50
2022/01/24 13:09:11;;;;;;;0.60;0.50;;;23.30;30.70;;;;;;5053599;28;20107;-51
2022/01/24 13:11:54;;;;;;;1.02;0.60;;;23.30;30.60;;;;;;5054407;28;20467;-46
2022/01/24 13:14:27;;;;;;;1.17;0.60;;;23.40;30.50;;;;;;5054260;28;20074;-47
2022/01/24 13:22:38;;;;;;;0.77;0.70;;;23.40;30.50;;;;;;5054505;28;20025;-51
2022/01/24 13:25:26;;;;;;;1.65;0.68;;;23.40;30.50;;;;;;5054419;28;20055;-50
2022/01/24 13:27:54;;;;;;;0.68;0.60;;;23.40;30.40;;;;;;5053958;28;20078;-50
2022/01/24 13:30:35;;;;;;;2.55;0.50;;;23.40;30.40;;;;;;5053470;28;20314;-50
2022/01/24 13:33:04;;;;;;;0.75;0.57;;;23.50;30.40;;;;;;5038570;28;20032;-51
2022/01/24 13:35:31;;;;;;;0.50;0.50;;;23.50;30.40;;;;;;5048678;28;20021;-52
2022/01/24 13:38:09;;;;;;;0.50;0.40;;;23.40;30.20;;;;;;5046272;28;20504;-46
2022/01/24 13:41:03;;;;;;;2.63;0.70;;;23.50;30.30;;;;;;5035412;28;20051;-47
2022/01/24 13:43:33;;;;;;;0.68;0.50;;;23.50;30.30;;;;;;5033937;28;20344;-54
2022/01/24 13:46:03;;;;;;;0.50;0.50;;;23.40;30.40;;;;;;5041040;28;20071;-58
2022/01/24 13:48:36;;;;;;;0.70;0.65;;;23.40;30.50;;;;;;5049744;28;20336;-56
2022/01/24 13:51:02;;;;;;;1.05;0.63;;;23.40;30.60;;;;;;5053835;28;20176;-58
2022/01/24 13:53:40;;;;;;;1.10;0.70;;;23.50;30.90;;;;;;5053967;28;20067;-54
2022/01/24 13:56:27;;;;;;;0.75;0.60;;;23.50;31.10;;;;;;5054012;28;20025;-52
2022/01/24 13:59:01;;;;;;;1.48;0.77;;;23.50;31.30;;;;;;5053547;28;20433;-52
2022/01/24 14:01:36;;;;;;;1.70;0.70;;;23.50;31.50;;;;;;5052291;28;20017;-53
2022/01/24 14:04:09;;;;;;;2.50;0.98;;;23.50;31.60;;;;;;5051380;28;20112;-58
2022/01/24 14:06:38;;;;;;;2.72;0.75;;;23.50;31.80;;;;;;5051579;28;20079;-56
2022/01/24 14:09:05;;;;;;;0.63;0.60;;;23.50;31.90;;;;;;5049163;28;20028;-56
2022/01/24 14:11:32;;;;;;;1.48;0.80;;;23.60;32.00;;;;;;5049756;28;20021;-54
2022/01/24 14:14:03;;;;;;;0.73;0.60;;;23.60;32.00;;;;;;5051895;28;20052;-55
2022/01/24 14:16:50;;;;;;;0.75;0.63;;;23.70;32.10;;;;;;5050809;28;20470;-55
2022/01/24 14:19:16;;;;;;;0.75;0.57;;;23.70;32.10;;;;;;5051126;28;20028;-50
2022/01/24 14:21:59;;;;;;;1.00;0.68;;;23.70;32.10;;;;;;5053306;28;20017;-48
2022/01/24 14:24:44;;;;;;;0.60;0.60;;;23.70;32.10;;;;;;5053087;28;20086;-49
2022/01/24 14:27:12;;;;;;;3.38;0.80;;;23.90;32.10;;;;;;5052645;28;20036;-48
2022/01/24 14:29:39;;;;;;;0.90;0.70;;;23.90;32.10;;;;;;5054250;28;20032;-55
2022/01/24 14:32:11;;;;;;;1.50;0.50;;;23.90;32.10;;;;;;5055798;28;20025;-52
2022/01/24 14:34:38;;;;;;;3.80;0.60;;;24.00;32.00;;;;;;5055311;28;20029;-50
2022/01/24 14:37:05;;;;;;;0.55;0.50;;;24.00;31.90;;;;;;5052391;28;20025;-55
2022/01/24 14:39:42;;;;;;;0.50;0.50;;;24.00;31.90;;;;;;5053753;28;20427;-54
2022/01/24 14:42:11;;;;;;;1.50;0.60;;;24.10;31.80;;;;;;5052920;28;20040;-52
2022/01/24 14:44:57;;;;;;;3.80;0.60;;;24.10;31.80;;;;;;5053772;28;20040;-56
2022/01/24 14:47:24;;;;;;;0.60;0.60;;;24.20;31.70;;;;;;5053447;28;20036;-55
2022/01/24 14:49:50;;;;;;;0.68;0.60;;;24.20;31.60;;;;;;5054479;28;20492;-51
2022/01/24 14:52:19;;;;;;;0.57;0.50;;;24.20;31.50;;;;;;5055703;28;20017;-55
2022/01/24 14:54:45;;;;;;;2.03;0.70;;;24.20;31.40;;;;;;5053645;28;20036;-55
2022/01/24 14:57:16;;;;;;;0.68;0.60;;;24.10;31.30;;;;;;5050747;28;20033;-58
2022/01/24 14:59:44;;;;;;;0.70;0.57;;;24.20;31.30;;;;;;5054439;28;20052;-57
2022/01/24 15:02:11;;;;;;;0.70;0.70;;;24.10;31.30;;;;;;5054385;28;20135;-59
2022/01/24 15:04:36;;;;;;;1.67;0.77;;;24.10;31.20;;;;;;5054570;28;20037;-53
2022/01/24 15:07:03;;;;;;;1.48;0.60;;;24.00;31.10;;;;;;5054732;28;20017;-55